sensor_id;sensor_type;location;lat;lon;timestamp;temperature;humidity
15262;DHT22;7733;51.554;13.590;2023-06-22T00:02:17;20.90;99.90
15262;DHT22;7733;51.554;13.590;2023-06-22T00:04:43;20.80;99.90
15262;DHT22;7733;51.554;13.590;2023-06-22T00:07:09;20.20;99.90
15262;DHT22;7733;51.554;13.590;2023-06-22T00:09:36;20.20;99.90
15262;DHT22;7733;51.554;13.590;2023-06-22T00:12:02;20.50;99.90
15262;DHT22;7733;51.554;13.590;2023-06-22T00:14:28;20.50;99.90
15262;DHT22;7733;51.554;13.590;2023-06-22T00:16:54;20.50;99.90
15262;DHT22;7733;51.554;13.590;2023-06-22T00:19:24;20.40;99.90
15262;DHT22;7733;51.554;13.590;2023-06-22T00:21:50;20.40;99.90
15262;DHT22;7733;51.554;13.590;2023-06-22T00:24:20;20.40;99.90
15262;DHT22;7733;51.554;13.590;2023-06-22T00:26:47;20.50;99.90
15262;DHT22;7733;51.554;13.590;2023-06-22T00:29:14;20.50;99.90
15262;DHT22;7733;51.554;13.590;2023-06-22T00:31:40;20.50;99.90
15262;DHT22;7733;51.554;13.590;2023-06-22T00:34:06;20.10;99.90
15262;DHT22;7733;51.554;13.590;2023-06-22T00:36:35;20.20;99.90
15262;DHT22;7733;51.554;13.590;2023-06-22T00:39:01;20.10;99.90
15262;DHT22;7733;51.554;13.590;2023-06-22T00:41:27;20.10;99.90
15262;DHT22;7733;51.554;13.590;2023-06-22T00:43:55;20.20;99.90
15262;DHT22;7733;51.554;13.590;2023-06-22T00:46:21;20.30;99.90
15262;DHT22;7733;51.554;13.590;2023-06-22T00:48:48;20.40;99.90
15262;DHT22;7733;51.554;13.590;2023-06-22T00:51:15;20.00;99.90
15262;DHT22;7733;51.554;13.590;2023-06-22T00:53:41;19.70;99.90
15262;DHT22;7733;51.554;13.590;2023-06-22T00:56:08;19.50;99.90
15262;DHT22;7733;51.554;13.590;2023-06-22T00:58:37;19.60;99.90
15262;DHT22;7733;51.554;13.590;2023-06-22T01:01:06;19.90;99.90
15262;DHT22;7733;51.554;13.590;2023-06-22T01:03:33;20.10;99.90
15262;DHT22;7733;51.554;13.590;2023-06-22T01:06:04;20.10;99.90
15262;DHT22;7733;51.554;13.590;2023-06-22T01:08:48;20.00;99.90
15262;DHT22;7733;51.554;13.590;2023-06-22T01:11:45;20.10;99.90
15262;DHT22;7733;51.554;13.590;2023-06-22T01:14:23;19.90;99.90
15262;DHT22;7733;51.554;13.590;2023-06-22T01:16:54;19.80;99.90
15262;DHT22;7733;51.554;13.590;2023-06-22T01:22:24;20.10;99.90
15262;DHT22;7733;51.554;13.590;2023-06-22T01:28:03;19.80;99.90
15262;DHT22;7733;51.554;13.590;2023-06-22T01:30:41;19.90;99.90
15262;DHT22;7733;51.554;13.590;2023-06-22T01:33:12;19.90;99.90
15262;DHT22;7733;51.554;13.590;2023-06-22T01:35:39;19.90;99.90
15262;DHT22;7733;51.554;13.590;2023-06-22T01:38:06;19.80;99.90
15262;DHT22;7733;51.554;13.590;2023-06-22T01:40:34;19.80;99.90
15262;DHT22;7733;51.554;13.590;2023-06-22T01:43:01;19.60;99.90
15262;DHT22;7733;51.554;13.590;2023-06-22T01:45:28;19.60;99.90
15262;DHT22;7733;51.554;13.590;2023-06-22T01:47:55;19.60;99.90
15262;DHT22;7733;51.554;13.590;2023-06-22T01:50:21;19.60;99.90
15262;DHT22;7733;51.554;13.590;2023-06-22T01:52:47;19.60;99.90
15262;DHT22;7733;51.554;13.590;2023-06-22T01:55:13;19.60;99.90
15262;DHT22;7733;51.554;13.590;2023-06-22T01:57:39;19.70;99.90
15262;DHT22;7733;51.554;13.590;2023-06-22T02:00:11;19.80;99.90
15262;DHT22;7733;51.554;13.590;2023-06-22T02:02:45;19.50;99.90
15262;DHT22;7733;51.554;13.590;2023-06-22T02:05:19;19.50;99.90
15262;DHT22;7733;51.554;13.590;2023-06-22T02:07:53;19.40;99.90
15262;DHT22;7733;51.554;13.590;2023-06-22T02:10:26;19.40;99.90
15262;DHT22;7733;51.554;13.590;2023-06-22T02:12:54;19.20;99.90
15262;DHT22;7733;51.554;13.590;2023-06-22T02:15:23;19.10;99.90
15262;DHT22;7733;51.554;13.590;2023-06-22T02:17:49;18.90;99.90
15262;DHT22;7733;51.554;13.590;2023-06-22T02:20:15;19.10;99.90
15262;DHT22;7733;51.554;13.590;2023-06-22T02:22:41;19.30;99.90
15262;DHT22;7733;51.554;13.590;2023-06-22T02:25:07;19.40;99.90
15262;DHT22;7733;51.554;13.590;2023-06-22T02:27:33;19.50;99.90
15262;DHT22;7733;51.554;13.590;2023-06-22T02:29:59;19.30;99.90
15262;DHT22;7733;51.554;13.590;2023-06-22T02:32:25;19.00;99.90
15262;DHT22;7733;51.554;13.590;2023-06-22T02:34:50;18.80;99.90
15262;DHT22;7733;51.554;13.590;2023-06-22T02:37:17;18.90;99.90
15262;DHT22;7733;51.554;13.590;2023-06-22T02:39:43;19.10;99.90
15262;DHT22;7733;51.554;13.590;2023-06-22T02:42:09;19.00;99.90
15262;DHT22;7733;51.554;13.590;2023-06-22T02:44:36;19.00;99.90
15262;DHT22;7733;51.554;13.590;2023-06-22T02:47:02;19.10;99.90
15262;DHT22;7733;51.554;13.590;2023-06-22T02:49:28;19.10;99.90
15262;DHT22;7733;51.554;13.590;2023-06-22T02:51:54;18.90;99.90
15262;DHT22;7733;51.554;13.590;2023-06-22T02:54:20;19.00;99.90
15262;DHT22;7733;51.554;13.590;2023-06-22T02:56:46;19.00;99.90
15262;DHT22;7733;51.554;13.590;2023-06-22T02:59:13;18.90;99.90
15262;DHT22;7733;51.554;13.590;2023-06-22T03:01:39;18.90;99.90
15262;DHT22;7733;51.554;13.590;2023-06-22T03:04:08;18.70;99.90
15262;DHT22;7733;51.554;13.590;2023-06-22T03:06:35;18.60;99.90
15262;DHT22;7733;51.554;13.590;2023-06-22T03:09:04;18.80;99.90
15262;DHT22;7733;51.554;13.590;2023-06-22T03:11:31;19.00;99.90
15262;DHT22;7733;51.554;13.590;2023-06-22T03:13:58;19.10;99.90
15262;DHT22;7733;51.554;13.590;2023-06-22T03:16:24;19.20;99.90
15262;DHT22;7733;51.554;13.590;2023-06-22T03:18:51;19.10;99.90
15262;DHT22;7733;51.554;13.590;2023-06-22T03:21:17;19.00;99.90
15262;DHT22;7733;51.554;13.590;2023-06-22T03:23:43;19.00;99.90
15262;DHT22;7733;51.554;13.590;2023-06-22T03:26:09;19.10;99.90
15262;DHT22;7733;51.554;13.590;2023-06-22T03:28:35;19.00;99.90
15262;DHT22;7733;51.554;13.590;2023-06-22T03:31:03;19.00;99.90
15262;DHT22;7733;51.554;13.590;2023-06-22T03:33:29;18.80;99.90
15262;DHT22;7733;51.554;13.590;2023-06-22T03:35:55;18.70;99.90
15262;DHT22;7733;51.554;13.590;2023-06-22T03:38:21;18.90;99.90
15262;DHT22;7733;51.554;13.590;2023-06-22T03:40:47;18.80;99.90
15262;DHT22;7733;51.554;13.590;2023-06-22T03:43:12;18.70;99.90
15262;DHT22;7733;51.554;13.590;2023-06-22T03:45:38;18.80;99.90
15262;DHT22;7733;51.554;13.590;2023-06-22T03:48:05;18.80;99.90
15262;DHT22;7733;51.554;13.590;2023-06-22T03:50:31;18.90;99.90
15262;DHT22;7733;51.554;13.590;2023-06-22T03:52:57;18.80;99.90
15262;DHT22;7733;51.554;13.590;2023-06-22T03:55:22;18.80;99.90
15262;DHT22;7733;51.554;13.590;2023-06-22T03:57:48;18.80;99.90
15262;DHT22;7733;51.554;13.590;2023-06-22T04:00:14;18.90;99.90
15262;DHT22;7733;51.554;13.590;2023-06-22T04:02:41;19.10;99.90
15262;DHT22;7733;51.554;13.590;2023-06-22T04:05:08;19.10;99.90
15262;DHT22;7733;51.554;13.590;2023-06-22T04:07:35;19.20;99.90
15262;DHT22;7733;51.554;13.590;2023-06-22T04:10:03;19.20;99.90
15262;DHT22;7733;51.554;13.590;2023-06-22T04:12:30;19.10;99.90
15262;DHT22;7733;51.554;13.590;2023-06-22T04:14:55;19.00;99.90
15262;DHT22;7733;51.554;13.590;2023-06-22T04:17:21;19.20;99.90
15262;DHT22;7733;51.554;13.590;2023-06-22T04:19:50;19.30;99.90
15262;DHT22;7733;51.554;13.590;2023-06-22T04:22:16;19.30;99.90
15262;DHT22;7733;51.554;13.590;2023-06-22T04:24:43;19.20;99.90
15262;DHT22;7733;51.554;13.590;2023-06-22T04:27:09;19.20;99.90
15262;DHT22;7733;51.554;13.590;2023-06-22T04:29:35;19.20;99.90
15262;DHT22;7733;51.554;13.590;2023-06-22T04:32:01;19.30;99.90
15262;DHT22;7733;51.554;13.590;2023-06-22T04:34:31;19.30;99.90
15262;DHT22;7733;51.554;13.590;2023-06-22T04:36:57;19.20;99.90
15262;DHT22;7733;51.554;13.590;2023-06-22T04:39:23;19.20;99.90
15262;DHT22;7733;51.554;13.590;2023-06-22T04:41:50;19.50;99.90
15262;DHT22;7733;51.554;13.590;2023-06-22T04:44:17;19.60;99.90
15262;DHT22;7733;51.554;13.590;2023-06-22T04:46:51;19.60;99.90
15262;DHT22;7733;51.554;13.590;2023-06-22T04:49:25;19.70;99.90
15262;DHT22;7733;51.554;13.590;2023-06-22T04:52:02;19.70;99.90
15262;DHT22;7733;51.554;13.590;2023-06-22T04:54:30;19.70;99.90
15262;DHT22;7733;51.554;13.590;2023-06-22T04:56:59;19.80;99.90
15262;DHT22;7733;51.554;13.590;2023-06-22T04:59:30;19.90;99.90
15262;DHT22;7733;51.554;13.590;2023-06-22T05:01:57;20.10;99.90
15262;DHT22;7733;51.554;13.590;2023-06-22T05:04:25;20.20;99.90
15262;DHT22;7733;51.554;13.590;2023-06-22T05:06:53;20.30;99.90
15262;DHT22;7733;51.554;13.590;2023-06-22T05:09:21;20.40;99.90
15262;DHT22;7733;51.554;13.590;2023-06-22T05:11:47;20.50;99.90
15262;DHT22;7733;51.554;13.590;2023-06-22T05:14:13;20.70;99.90
15262;DHT22;7733;51.554;13.590;2023-06-22T05:16:40;20.70;99.90
15262;DHT22;7733;51.554;13.590;2023-06-22T05:19:07;20.80;99.90
15262;DHT22;7733;51.554;13.590;2023-06-22T05:21:33;21.00;99.90
15262;DHT22;7733;51.554;13.590;2023-06-22T05:23:59;21.00;99.90
15262;DHT22;7733;51.554;13.590;2023-06-22T05:26:27;21.00;99.90
15262;DHT22;7733;51.554;13.590;2023-06-22T05:28:53;21.30;99.90
15262;DHT22;7733;51.554;13.590;2023-06-22T05:31:20;21.40;99.90
15262;DHT22;7733;51.554;13.590;2023-06-22T05:33:47;21.60;99.90
15262;DHT22;7733;51.554;13.590;2023-06-22T05:36:14;21.80;99.90
15262;DHT22;7733;51.554;13.590;2023-06-22T05:38:41;22.00;99.90
15262;DHT22;7733;51.554;13.590;2023-06-22T05:41:08;22.10;99.90
15262;DHT22;7733;51.554;13.590;2023-06-22T05:43:33;22.20;99.90
15262;DHT22;7733;51.554;13.590;2023-06-22T05:46:01;22.30;99.90
15262;DHT22;7733;51.554;13.590;2023-06-22T05:48:28;22.40;99.90
15262;DHT22;7733;51.554;13.590;2023-06-22T05:50:54;22.50;99.90
15262;DHT22;7733;51.554;13.590;2023-06-22T05:53:20;22.50;99.90
15262;DHT22;7733;51.554;13.590;2023-06-22T05:55:46;22.40;99.90
15262;DHT22;7733;51.554;13.590;2023-06-22T05:58:12;22.40;99.90
15262;DHT22;7733;51.554;13.590;2023-06-22T06:00:39;22.60;99.90
15262;DHT22;7733;51.554;13.590;2023-06-22T06:03:05;22.80;99.90
15262;DHT22;7733;51.554;13.590;2023-06-22T06:05:33;22.80;99.90
15262;DHT22;7733;51.554;13.590;2023-06-22T06:08:04;22.90;99.90
15262;DHT22;7733;51.554;13.590;2023-06-22T06:10:31;22.90;99.90
15262;DHT22;7733;51.554;13.590;2023-06-22T06:12:58;23.00;99.90
15262;DHT22;7733;51.554;13.590;2023-06-22T06:15:27;23.20;99.90
15262;DHT22;7733;51.554;13.590;2023-06-22T06:17:54;23.20;99.90
15262;DHT22;7733;51.554;13.590;2023-06-22T06:20:24;23.30;99.90
15262;DHT22;7733;51.554;13.590;2023-06-22T06:22:51;23.40;99.90
15262;DHT22;7733;51.554;13.590;2023-06-22T06:25:17;23.50;99.90
15262;DHT22;7733;51.554;13.590;2023-06-22T06:27:49;23.60;99.90
15262;DHT22;7733;51.554;13.590;2023-06-22T06:30:18;23.80;99.90
15262;DHT22;7733;51.554;13.590;2023-06-22T06:32:45;24.00;99.90
15262;DHT22;7733;51.554;13.590;2023-06-22T06:35:13;24.00;99.90
15262;DHT22;7733;51.554;13.590;2023-06-22T06:37:42;24.20;99.90
15262;DHT22;7733;51.554;13.590;2023-06-22T06:40:10;24.30;99.90
15262;DHT22;7733;51.554;13.590;2023-06-22T06:42:42;24.40;99.90
15262;DHT22;7733;51.554;13.590;2023-06-22T06:47:42;24.50;99.90
15262;DHT22;7733;51.554;13.590;2023-06-22T06:50:08;24.50;99.90
15262;DHT22;7733;51.554;13.590;2023-06-22T06:52:36;24.50;99.90
15262;DHT22;7733;51.554;13.590;2023-06-22T06:55:03;24.50;99.90
15262;DHT22;7733;51.554;13.590;2023-06-22T06:57:35;24.60;99.90
15262;DHT22;7733;51.554;13.590;2023-06-22T07:00:06;24.70;99.90
15262;DHT22;7733;51.554;13.590;2023-06-22T07:02:39;24.90;99.90
15262;DHT22;7733;51.554;13.590;2023-06-22T07:05:06;25.00;99.90
15262;DHT22;7733;51.554;13.590;2023-06-22T07:07:32;25.00;99.90
15262;DHT22;7733;51.554;13.590;2023-06-22T07:09:59;25.20;99.90
15262;DHT22;7733;51.554;13.590;2023-06-22T07:12:25;25.20;99.90
15262;DHT22;7733;51.554;13.590;2023-06-22T07:14:52;25.30;99.90
15262;DHT22;7733;51.554;13.590;2023-06-22T07:17:18;25.30;99.90
15262;DHT22;7733;51.554;13.590;2023-06-22T07:19:44;25.40;99.90
15262;DHT22;7733;51.554;13.590;2023-06-22T07:22:10;25.60;99.90
15262;DHT22;7733;51.554;13.590;2023-06-22T07:24:36;25.80;99.90
15262;DHT22;7733;51.554;13.590;2023-06-22T07:27:03;25.80;99.90
15262;DHT22;7733;51.554;13.590;2023-06-22T07:29:29;26.00;99.90
15262;DHT22;7733;51.554;13.590;2023-06-22T07:31:55;25.90;99.90
15262;DHT22;7733;51.554;13.590;2023-06-22T07:34:22;26.00;99.90
15262;DHT22;7733;51.554;13.590;2023-06-22T07:36:48;25.90;99.90
15262;DHT22;7733;51.554;13.590;2023-06-22T07:39:13;26.00;99.90
15262;DHT22;7733;51.554;13.590;2023-06-22T07:41:40;26.10;99.90
15262;DHT22;7733;51.554;13.590;2023-06-22T07:44:06;26.20;99.90
15262;DHT22;7733;51.554;13.590;2023-06-22T07:46:32;26.40;99.90
15262;DHT22;7733;51.554;13.590;2023-06-22T07:48:59;26.50;99.90
15262;DHT22;7733;51.554;13.590;2023-06-22T07:51:25;26.60;99.90
15262;DHT22;7733;51.554;13.590;2023-06-22T07:53:51;26.60;99.90
15262;DHT22;7733;51.554;13.590;2023-06-22T07:56:17;26.60;99.90
15262;DHT22;7733;51.554;13.590;2023-06-22T07:58:47;26.80;99.90
15262;DHT22;7733;51.554;13.590;2023-06-22T08:01:14;27.00;99.90
15262;DHT22;7733;51.554;13.590;2023-06-22T08:03:40;27.00;99.90
15262;DHT22;7733;51.554;13.590;2023-06-22T08:06:07;27.10;99.90
15262;DHT22;7733;51.554;13.590;2023-06-22T08:08:37;27.30;99.90
15262;DHT22;7733;51.554;13.590;2023-06-22T08:11:03;27.40;99.90
15262;DHT22;7733;51.554;13.590;2023-06-22T08:13:29;27.70;99.90
15262;DHT22;7733;51.554;13.590;2023-06-22T08:15:55;27.70;99.90
15262;DHT22;7733;51.554;13.590;2023-06-22T08:18:21;27.80;99.90
15262;DHT22;7733;51.554;13.590;2023-06-22T08:20:46;28.00;99.90
15262;DHT22;7733;51.554;13.590;2023-06-22T08:23:12;28.30;99.90
15262;DHT22;7733;51.554;13.590;2023-06-22T08:25:38;28.40;99.90
15262;DHT22;7733;51.554;13.590;2023-06-22T08:28:04;28.30;99.80
15262;DHT22;7733;51.554;13.590;2023-06-22T08:30:30;28.30;99.60
15262;DHT22;7733;51.554;13.590;2023-06-22T08:32:56;28.70;99.70
15262;DHT22;7733;51.554;13.590;2023-06-22T08:35:22;28.70;99.30
15262;DHT22;7733;51.554;13.590;2023-06-22T08:37:48;28.70;98.60
15262;DHT22;7733;51.554;13.590;2023-06-22T08:40:20;28.90;98.80
15262;DHT22;7733;51.554;13.590;2023-06-22T08:42:47;29.00;98.10
15262;DHT22;7733;51.554;13.590;2023-06-22T08:45:13;29.00;97.70
15262;DHT22;7733;51.554;13.590;2023-06-22T08:47:40;28.90;97.70
15262;DHT22;7733;51.554;13.590;2023-06-22T08:50:07;28.90;97.60
15262;DHT22;7733;51.554;13.590;2023-06-22T08:52:35;28.90;97.30
15262;DHT22;7733;51.554;13.590;2023-06-22T08:55:01;29.20;96.80
15262;DHT22;7733;51.554;13.590;2023-06-22T08:57:27;29.40;96.30
15262;DHT22;7733;51.554;13.590;2023-06-22T08:59:53;29.40;96.30
15262;DHT22;7733;51.554;13.590;2023-06-22T09:02:23;29.50;95.10
15262;DHT22;7733;51.554;13.590;2023-06-22T09:04:50;29.80;95.10
15262;DHT22;7733;51.554;13.590;2023-06-22T09:07:23;29.90;94.70
15262;DHT22;7733;51.554;13.590;2023-06-22T09:09:50;29.90;94.30
15262;DHT22;7733;51.554;13.590;2023-06-22T09:12:20;29.70;94.50
15262;DHT22;7733;51.554;13.590;2023-06-22T09:14:48;29.60;94.00
15262;DHT22;7733;51.554;13.590;2023-06-22T09:17:14;29.50;93.20
15262;DHT22;7733;51.554;13.590;2023-06-22T09:19:40;29.60;93.40
15262;DHT22;7733;51.554;13.590;2023-06-22T09:22:05;30.10;93.40
15262;DHT22;7733;51.554;13.590;2023-06-22T09:24:32;30.10;92.90
15262;DHT22;7733;51.554;13.590;2023-06-22T09:26:58;30.40;92.70
15262;DHT22;7733;51.554;13.590;2023-06-22T09:29:24;30.20;92.10
15262;DHT22;7733;51.554;13.590;2023-06-22T09:31:50;30.70;91.40
15262;DHT22;7733;51.554;13.590;2023-06-22T09:34:18;30.90;91.10
15262;DHT22;7733;51.554;13.590;2023-06-22T09:36:46;30.40;90.70
15262;DHT22;7733;51.554;13.590;2023-06-22T09:39:12;30.40;90.20
15262;DHT22;7733;51.554;13.590;2023-06-22T09:41:38;30.20;90.20
15262;DHT22;7733;51.554;13.590;2023-06-22T09:44:04;29.90;90.10
15262;DHT22;7733;51.554;13.590;2023-06-22T09:46:30;30.20;90.30
15262;DHT22;7733;51.554;13.590;2023-06-22T09:48:55;30.30;90.10
15262;DHT22;7733;51.554;13.590;2023-06-22T09:51:21;30.10;90.80
15262;DHT22;7733;51.554;13.590;2023-06-22T09:53:49;30.50;91.40
15262;DHT22;7733;51.554;13.590;2023-06-22T09:56:15;30.90;90.00
15262;DHT22;7733;51.554;13.590;2023-06-22T09:58:45;30.70;88.10
15262;DHT22;7733;51.554;13.590;2023-06-22T10:01:12;30.50;88.10
15262;DHT22;7733;51.554;13.590;2023-06-22T10:03:41;30.60;88.80
15262;DHT22;7733;51.554;13.590;2023-06-22T10:06:07;30.70;87.60
15262;DHT22;7733;51.554;13.590;2023-06-22T10:08:34;30.70;88.50
15262;DHT22;7733;51.554;13.590;2023-06-22T10:11:00;30.80;89.20
15262;DHT22;7733;51.554;13.590;2023-06-22T10:13:26;30.90;87.60
15262;DHT22;7733;51.554;13.590;2023-06-22T10:15:52;30.70;87.90
15262;DHT22;7733;51.554;13.590;2023-06-22T10:18:19;30.50;88.50
15262;DHT22;7733;51.554;13.590;2023-06-22T10:20:50;30.50;88.70
15262;DHT22;7733;51.554;13.590;2023-06-22T10:23:17;30.40;88.10
15262;DHT22;7733;51.554;13.590;2023-06-22T10:25:43;30.60;88.30
15262;DHT22;7733;51.554;13.590;2023-06-22T10:28:09;31.00;87.10
15262;DHT22;7733;51.554;13.590;2023-06-22T10:30:35;31.00;86.70
15262;DHT22;7733;51.554;13.590;2023-06-22T10:33:01;31.10;86.10
15262;DHT22;7733;51.554;13.590;2023-06-22T10:35:26;31.20;86.00
15262;DHT22;7733;51.554;13.590;2023-06-22T10:37:52;31.50;85.40
15262;DHT22;7733;51.554;13.590;2023-06-22T10:40:19;32.00;83.90
15262;DHT22;7733;51.554;13.590;2023-06-22T10:42:45;32.30;82.70
15262;DHT22;7733;51.554;13.590;2023-06-22T10:45:11;32.30;81.80
15262;DHT22;7733;51.554;13.590;2023-06-22T10:47:37;32.20;81.90
15262;DHT22;7733;51.554;13.590;2023-06-22T10:50:04;31.80;82.20
15262;DHT22;7733;51.554;13.590;2023-06-22T10:52:30;31.50;81.40
15262;DHT22;7733;51.554;13.590;2023-06-22T10:54:56;31.50;82.20
15262;DHT22;7733;51.554;13.590;2023-06-22T10:57:22;31.60;81.20
15262;DHT22;7733;51.554;13.590;2023-06-22T10:59:48;31.30;82.30
15262;DHT22;7733;51.554;13.590;2023-06-22T11:02:14;31.30;82.90
15262;DHT22;7733;51.554;13.590;2023-06-22T11:04:39;31.10;82.00
15262;DHT22;7733;51.554;13.590;2023-06-22T11:07:05;30.80;83.00
15262;DHT22;7733;51.554;13.590;2023-06-22T11:09:31;30.90;83.70
15262;DHT22;7733;51.554;13.590;2023-06-22T11:11:57;31.00;82.80
15262;DHT22;7733;51.554;13.590;2023-06-22T11:14:25;31.50;81.60
15262;DHT22;7733;51.554;13.590;2023-06-22T11:16:51;31.60;80.70
15262;DHT22;7733;51.554;13.590;2023-06-22T11:19:17;31.70;80.30
15262;DHT22;7733;51.554;13.590;2023-06-22T11:21:44;31.90;80.70
15262;DHT22;7733;51.554;13.590;2023-06-22T11:24:09;32.00;78.90
15262;DHT22;7733;51.554;13.590;2023-06-22T11:26:35;31.70;79.40
15262;DHT22;7733;51.554;13.590;2023-06-22T11:29:02;31.60;79.60
15262;DHT22;7733;51.554;13.590;2023-06-22T11:31:31;31.40;79.90
15262;DHT22;7733;51.554;13.590;2023-06-22T11:34:00;31.60;80.40
15262;DHT22;7733;51.554;13.590;2023-06-22T11:36:26;31.40;79.10
15262;DHT22;7733;51.554;13.590;2023-06-22T11:38:54;31.60;79.10
15262;DHT22;7733;51.554;13.590;2023-06-22T11:41:20;31.50;79.80
15262;DHT22;7733;51.554;13.590;2023-06-22T11:43:46;31.90;78.80
15262;DHT22;7733;51.554;13.590;2023-06-22T11:46:11;32.30;78.80
15262;DHT22;7733;51.554;13.590;2023-06-22T11:48:37;32.60;76.20
15262;DHT22;7733;51.554;13.590;2023-06-22T11:51:03;32.50;75.40
15262;DHT22;7733;51.554;13.590;2023-06-22T11:53:29;32.80;75.20
15262;DHT22;7733;51.554;13.590;2023-06-22T11:55:55;32.50;74.40
15262;DHT22;7733;51.554;13.590;2023-06-22T11:58:22;32.30;75.90
15262;DHT22;7733;51.554;13.590;2023-06-22T12:00:48;31.90;75.80
15262;DHT22;7733;51.554;13.590;2023-06-22T12:03:14;31.70;76.60
15262;DHT22;7733;51.554;13.590;2023-06-22T12:05:40;31.70;76.90
15262;DHT22;7733;51.554;13.590;2023-06-22T12:08:06;31.50;76.90
15262;DHT22;7733;51.554;13.590;2023-06-22T12:10:32;31.50;77.00
15262;DHT22;7733;51.554;13.590;2023-06-22T12:12:58;31.20;76.90
15262;DHT22;7733;51.554;13.590;2023-06-22T12:15:26;31.10;77.70
15262;DHT22;7733;51.554;13.590;2023-06-22T12:17:52;31.10;77.70
15262;DHT22;7733;51.554;13.590;2023-06-22T12:20:18;31.40;77.20
15262;DHT22;7733;51.554;13.590;2023-06-22T12:22:44;32.00;76.70
15262;DHT22;7733;51.554;13.590;2023-06-22T12:25:10;32.20;75.20
15262;DHT22;7733;51.554;13.590;2023-06-22T12:27:37;32.70;74.40
15262;DHT22;7733;51.554;13.590;2023-06-22T12:30:03;32.80;74.40
15262;DHT22;7733;51.554;13.590;2023-06-22T12:32:30;33.10;72.70
15262;DHT22;7733;51.554;13.590;2023-06-22T12:34:56;33.00;73.10
15262;DHT22;7733;51.554;13.590;2023-06-22T12:37:23;32.80;72.30
15262;DHT22;7733;51.554;13.590;2023-06-22T12:39:48;32.70;72.80
15262;DHT22;7733;51.554;13.590;2023-06-22T12:42:16;32.40;73.00
15262;DHT22;7733;51.554;13.590;2023-06-22T12:44:42;32.30;74.10
15262;DHT22;7733;51.554;13.590;2023-06-22T12:47:08;32.40;73.60
15262;DHT22;7733;51.554;13.590;2023-06-22T12:49:38;32.50;73.30
15262;DHT22;7733;51.554;13.590;2023-06-22T12:52:08;32.40;73.70
15262;DHT22;7733;51.554;13.590;2023-06-22T12:54:34;32.30;73.90
15262;DHT22;7733;51.554;13.590;2023-06-22T12:57:01;32.40;73.80
15262;DHT22;7733;51.554;13.590;2023-06-22T12:59:27;32.50;72.90
15262;DHT22;7733;51.554;13.590;2023-06-22T13:01:52;32.40;72.90
15262;DHT22;7733;51.554;13.590;2023-06-22T13:04:18;32.90;73.00
15262;DHT22;7733;51.554;13.590;2023-06-22T13:06:44;33.40;71.40
15262;DHT22;7733;51.554;13.590;2023-06-22T13:09:17;33.50;72.10
15262;DHT22;7733;51.554;13.590;2023-06-22T13:11:44;33.50;70.20
15262;DHT22;7733;51.554;13.590;2023-06-22T13:14:10;33.60;70.40
15262;DHT22;7733;51.554;13.590;2023-06-22T13:16:36;33.70;69.40
15262;DHT22;7733;51.554;13.590;2023-06-22T13:19:01;33.30;70.40
15262;DHT22;7733;51.554;13.590;2023-06-22T13:21:27;33.10;71.10
15262;DHT22;7733;51.554;13.590;2023-06-22T13:23:53;33.20;70.30
15262;DHT22;7733;51.554;13.590;2023-06-22T13:26:20;32.80;70.80
15262;DHT22;7733;51.554;13.590;2023-06-22T13:28:47;32.60;70.80
15262;DHT22;7733;51.554;13.590;2023-06-22T13:31:13;32.90;71.20
15262;DHT22;7733;51.554;13.590;2023-06-22T13:33:38;32.90;71.10
15262;DHT22;7733;51.554;13.590;2023-06-22T13:36:06;32.70;70.60
15262;DHT22;7733;51.554;13.590;2023-06-22T13:38:33;32.80;70.80
15262;DHT22;7733;51.554;13.590;2023-06-22T13:41:04;32.90;70.50
15262;DHT22;7733;51.554;13.590;2023-06-22T13:43:31;33.30;70.30
15262;DHT22;7733;51.554;13.590;2023-06-22T13:45:57;33.30;69.20
15262;DHT22;7733;51.554;13.590;2023-06-22T13:48:23;33.30;69.70
15262;DHT22;7733;51.554;13.590;2023-06-22T13:50:51;33.50;70.00
15262;DHT22;7733;51.554;13.590;2023-06-22T13:53:17;33.50;68.80
15262;DHT22;7733;51.554;13.590;2023-06-22T13:55:43;33.50;68.80
15262;DHT22;7733;51.554;13.590;2023-06-22T13:58:09;33.70;68.10
15262;DHT22;7733;51.554;13.590;2023-06-22T14:00:35;33.50;69.70
15262;DHT22;7733;51.554;13.590;2023-06-22T14:03:00;33.20;68.90
15262;DHT22;7733;51.554;13.590;2023-06-22T14:05:26;33.10;69.30
15262;DHT22;7733;51.554;13.590;2023-06-22T14:07:52;33.00;69.60
15262;DHT22;7733;51.554;13.590;2023-06-22T14:10:17;32.40;70.10
15262;DHT22;7733;51.554;13.590;2023-06-22T14:12:43;32.50;72.10
15262;DHT22;7733;51.554;13.590;2023-06-22T14:15:10;32.60;70.60
15262;DHT22;7733;51.554;13.590;2023-06-22T14:17:35;32.60;70.80
15262;DHT22;7733;51.554;13.590;2023-06-22T14:20:01;32.90;70.50
15262;DHT22;7733;51.554;13.590;2023-06-22T14:22:27;33.10;70.00
15262;DHT22;7733;51.554;13.590;2023-06-22T14:24:55;33.10;69.70
15262;DHT22;7733;51.554;13.590;2023-06-22T14:27:23;33.30;70.20
15262;DHT22;7733;51.554;13.590;2023-06-22T14:29:49;33.60;69.70
15262;DHT22;7733;51.554;13.590;2023-06-22T14:32:14;33.60;68.70
15262;DHT22;7733;51.554;13.590;2023-06-22T14:34:40;33.50;67.90
15262;DHT22;7733;51.554;13.590;2023-06-22T14:37:07;33.40;68.10
15262;DHT22;7733;51.554;13.590;2023-06-22T14:39:35;33.00;68.80
15262;DHT22;7733;51.554;13.590;2023-06-22T14:42:01;33.20;68.80
15262;DHT22;7733;51.554;13.590;2023-06-22T14:44:29;33.30;69.00
15262;DHT22;7733;51.554;13.590;2023-06-22T14:46:55;33.40;68.70
15262;DHT22;7733;51.554;13.590;2023-06-22T14:49:22;33.20;68.90
15262;DHT22;7733;51.554;13.590;2023-06-22T14:51:48;33.30;67.90
15262;DHT22;7733;51.554;13.590;2023-06-22T14:54:13;33.50;68.30
15262;DHT22;7733;51.554;13.590;2023-06-22T14:56:39;33.60;67.90
15262;DHT22;7733;51.554;13.590;2023-06-22T14:59:05;33.50;67.90
15262;DHT22;7733;51.554;13.590;2023-06-22T15:01:32;33.10;68.20
15262;DHT22;7733;51.554;13.590;2023-06-22T15:03:57;33.30;68.40
15262;DHT22;7733;51.554;13.590;2023-06-22T15:06:23;33.40;68.00
15262;DHT22;7733;51.554;13.590;2023-06-22T15:08:49;33.40;68.00
15262;DHT22;7733;51.554;13.590;2023-06-22T15:11:14;33.70;67.40
15262;DHT22;7733;51.554;13.590;2023-06-22T15:13:41;33.70;67.70
15262;DHT22;7733;51.554;13.590;2023-06-22T15:16:07;33.70;67.50
15262;DHT22;7733;51.554;13.590;2023-06-22T15:18:35;33.50;67.90
15262;DHT22;7733;51.554;13.590;2023-06-22T15:21:02;33.40;67.60
15262;DHT22;7733;51.554;13.590;2023-06-22T15:23:29;33.40;68.30
15262;DHT22;7733;51.554;13.590;2023-06-22T15:25:56;33.40;67.80
15262;DHT22;7733;51.554;13.590;2023-06-22T15:28:24;33.70;67.50
15262;DHT22;7733;51.554;13.590;2023-06-22T15:30:50;33.50;67.40
15262;DHT22;7733;51.554;13.590;2023-06-22T15:33:17;33.50;67.40
15262;DHT22;7733;51.554;13.590;2023-06-22T15:35:43;33.70;67.80
15262;DHT22;7733;51.554;13.590;2023-06-22T15:38:09;33.50;66.80